Portada
METAR-TAF:

METAR-TAF

Aeropuertos :

Vitoria, España

Aeropuerto de Vitoria

latitud: 42-53N, longitud: 002-43W, altitud: 513 m

Observación

El informe se hizo hace 15 minutos, a las 08:00 UTC
Viento 6 kt del sur-suroeste, variando entre sur y oeste-suroeste
Temperatura 10°C
Humedad 82%
Presión 1026 hPa
Visibilidad 10 km o más
Escasas nubes a una altura de 2500 ft

METAR: LEVT 280800Z 21006KT 180V250 9999 FEW025 10/07 Q1026

Hora: 10:15 (08:15 UTC)

Pronóstico

El informe se hizo hace 3 horas y 15 minutos, a las 05:00 UTC
Pronóstico válido del 28 a las 06 UTC al 29 a las 06 UTC
Viento 7 kt del sur
Visibilidad 10 km o más
Nubes dispersas a una altura de 2000 ft
Probabilidad 30% :
Temporalmente
del 28 a las 06 UTC al 28 a las 08 UTC
Visibilidad: 0350 m
a una altura de 100 ft
niebla

TAF: LEVT 280500Z 2806/2906 18007KT 9999 SCT020 TX18/2815Z TN02/2906Z PROB30 TEMPO 2806/2808 0350 FG VV001

Observaciones y pronósticos meteorológicos de más de 4000 aeropuertos (mensajes METAR y TAF).

Los puntos amarillos y rojos representan las estaciones disponibles.

Ponga el ratón en el punto deseado para ver el nombre de la estación.

Haga clic para ver las observaciones y los pronósticos meteorológicos.

Para cambiar el mapa : haga clic en los botones verdes con una cruz de color negro para hacer un zoom, en el botón verde con un guión para alejar o en las flechas verdes para mapas adyacentes.


METAR-TAF: